sensor_id;sensor_type;location;lat;lon;timestamp;temperature;humidity
49222;DHT22;35047;37.588;-122.048;2023-07-31T00:01:09;44.10;30.10
49222;DHT22;35047;37.588;-122.048;2023-07-31T00:03:36;44.20;30.10
49222;DHT22;35047;37.588;-122.048;2023-07-31T00:06:02;43.70;30.20
49222;DHT22;35047;37.588;-122.048;2023-07-31T00:08:28;43.50;30.70
49222;DHT22;35047;37.588;-122.048;2023-07-31T00:10:55;43.20;30.90
49222;DHT22;35047;37.588;-122.048;2023-07-31T00:13:22;42.70;31.30
49222;DHT22;35047;37.588;-122.048;2023-07-31T00:15:49;42.60;31.70
49222;DHT22;35047;37.588;-122.048;2023-07-31T00:18:15;42.70;31.60
49222;DHT22;35047;37.588;-122.048;2023-07-31T00:20:42;42.50;32.00
49222;DHT22;35047;37.588;-122.048;2023-07-31T00:23:08;42.20;32.20
49222;DHT22;35047;37.588;-122.048;2023-07-31T00:25:34;42.30;32.40
49222;DHT22;35047;37.588;-122.048;2023-07-31T00:28:01;41.70;32.40
49222;DHT22;35047;37.588;-122.048;2023-07-31T00:30:27;41.70;32.70
49222;DHT22;35047;37.588;-122.048;2023-07-31T00:32:54;41.70;32.90
49222;DHT22;35047;37.588;-122.048;2023-07-31T00:35:20;41.60;32.90
49222;DHT22;35047;37.588;-122.048;2023-07-31T00:37:47;41.50;33.50
49222;DHT22;35047;37.588;-122.048;2023-07-31T00:40:13;41.50;33.40
49222;DHT22;35047;37.588;-122.048;2023-07-31T00:42:40;41.50;33.60
49222;DHT22;35047;37.588;-122.048;2023-07-31T00:45:06;41.40;33.50
49222;DHT22;35047;37.588;-122.048;2023-07-31T00:47:33;40.70;33.80
49222;DHT22;35047;37.588;-122.048;2023-07-31T00:49:59;40.20;34.10
49222;DHT22;35047;37.588;-122.048;2023-07-31T00:52:25;39.40;34.80
49222;DHT22;35047;37.588;-122.048;2023-07-31T00:55:00;38.30;36.40
49222;DHT22;35047;37.588;-122.048;2023-07-31T00:57:26;37.20;37.50
49222;DHT22;35047;37.588;-122.048;2023-07-31T00:59:53;36.40;38.70
49222;DHT22;35047;37.588;-122.048;2023-07-31T01:02:19;35.80;39.70
49222;DHT22;35047;37.588;-122.048;2023-07-31T01:04:45;35.40;39.40
49222;DHT22;35047;37.588;-122.048;2023-07-31T01:07:46;35.30;39.80
49222;DHT22;35047;37.588;-122.048;2023-07-31T01:10:30;34.70;40.40
49222;DHT22;35047;37.588;-122.048;2023-07-31T01:13:00;34.30;40.90
49222;DHT22;35047;37.588;-122.048;2023-07-31T01:15:26;34.30;40.70
49222;DHT22;35047;37.588;-122.048;2023-07-31T01:17:52;34.00;41.00
49222;DHT22;35047;37.588;-122.048;2023-07-31T01:20:23;33.90;41.50
49222;DHT22;35047;37.588;-122.048;2023-07-31T01:28:22;33.80;41.60
49222;DHT22;35047;37.588;-122.048;2023-07-31T01:30:50;34.00;41.30
49222;DHT22;35047;37.588;-122.048;2023-07-31T01:33:17;34.10;40.80
49222;DHT22;35047;37.588;-122.048;2023-07-31T01:35:48;34.30;40.60
49222;DHT22;35047;37.588;-122.048;2023-07-31T01:38:15;34.50;40.00
49222;DHT22;35047;37.588;-122.048;2023-07-31T01:40:42;34.60;40.00
49222;DHT22;35047;37.588;-122.048;2023-07-31T01:43:09;34.50;39.00
49222;DHT22;35047;37.588;-122.048;2023-07-31T01:45:35;34.30;39.50
49222;DHT22;35047;37.588;-122.048;2023-07-31T01:48:02;34.10;39.30
49222;DHT22;35047;37.588;-122.048;2023-07-31T01:50:28;33.70;39.10
49222;DHT22;35047;37.588;-122.048;2023-07-31T01:52:55;33.10;40.50
49222;DHT22;35047;37.588;-122.048;2023-07-31T01:55:21;32.30;41.20
49222;DHT22;35047;37.588;-122.048;2023-07-31T01:57:48;31.80;41.90
49222;DHT22;35047;37.588;-122.048;2023-07-31T02:00:14;31.60;42.80
49222;DHT22;35047;37.588;-122.048;2023-07-31T02:02:41;31.40;43.60
49222;DHT22;35047;37.588;-122.048;2023-07-31T02:07:35;30.80;45.20
49222;DHT22;35047;37.588;-122.048;2023-07-31T02:10:02;30.50;46.70
49222;DHT22;35047;37.588;-122.048;2023-07-31T02:14:58;29.60;48.00
49222;DHT22;35047;37.588;-122.048;2023-07-31T02:17:24;29.30;51.30
49222;DHT22;35047;37.588;-122.048;2023-07-31T02:19:51;29.00;54.20
49222;DHT22;35047;37.588;-122.048;2023-07-31T02:22:17;28.80;53.00
49222;DHT22;35047;37.588;-122.048;2023-07-31T02:24:44;28.70;53.60
49222;DHT22;35047;37.588;-122.048;2023-07-31T02:29:37;27.90;49.40
49222;DHT22;35047;37.588;-122.048;2023-07-31T02:32:04;27.60;50.80
49222;DHT22;35047;37.588;-122.048;2023-07-31T02:34:30;27.40;51.30
49222;DHT22;35047;37.588;-122.048;2023-07-31T02:36:57;27.40;51.50
49222;DHT22;35047;37.588;-122.048;2023-07-31T02:39:24;27.20;51.20
49222;DHT22;35047;37.588;-122.048;2023-07-31T02:41:50;27.10;51.50
49222;DHT22;35047;37.588;-122.048;2023-07-31T02:44:17;26.80;52.20
49222;DHT22;35047;37.588;-122.048;2023-07-31T02:46:43;26.60;52.60
49222;DHT22;35047;37.588;-122.048;2023-07-31T02:49:11;26.40;53.00
49222;DHT22;35047;37.588;-122.048;2023-07-31T02:51:38;26.30;53.10
49222;DHT22;35047;37.588;-122.048;2023-07-31T02:54:04;26.20;53.40
49222;DHT22;35047;37.588;-122.048;2023-07-31T02:56:31;26.10;53.80
49222;DHT22;35047;37.588;-122.048;2023-07-31T02:58:57;26.00;54.30
49222;DHT22;35047;37.588;-122.048;2023-07-31T03:01:24;26.00;54.50
49222;DHT22;35047;37.588;-122.048;2023-07-31T03:03:51;25.90;54.70
49222;DHT22;35047;37.588;-122.048;2023-07-31T03:06:18;25.90;55.10
49222;DHT22;35047;37.588;-122.048;2023-07-31T03:08:44;25.80;55.10
49222;DHT22;35047;37.588;-122.048;2023-07-31T03:11:11;25.70;55.70
49222;DHT22;35047;37.588;-122.048;2023-07-31T03:13:37;25.60;55.90
49222;DHT22;35047;37.588;-122.048;2023-07-31T03:16:04;25.40;56.40
49222;DHT22;35047;37.588;-122.048;2023-07-31T03:18:31;25.30;56.80
49222;DHT22;35047;37.588;-122.048;2023-07-31T03:20:57;25.00;57.60
49222;DHT22;35047;37.588;-122.048;2023-07-31T03:23:24;24.90;58.10
49222;DHT22;35047;37.588;-122.048;2023-07-31T03:25:59;24.80;58.30
49222;DHT22;35047;37.588;-122.048;2023-07-31T03:28:26;24.70;58.90
49222;DHT22;35047;37.588;-122.048;2023-07-31T03:30:53;24.60;59.40
49222;DHT22;35047;37.588;-122.048;2023-07-31T03:33:19;24.60;59.90
49222;DHT22;35047;37.588;-122.048;2023-07-31T03:35:46;24.70;59.70
49222;DHT22;35047;37.588;-122.048;2023-07-31T03:38:13;25.00;59.20
49222;DHT22;35047;37.588;-122.048;2023-07-31T03:40:39;25.10;58.70
49222;DHT22;35047;37.588;-122.048;2023-07-31T03:43:06;25.30;58.20
49222;DHT22;35047;37.588;-122.048;2023-07-31T03:45:33;25.40;57.90
49222;DHT22;35047;37.588;-122.048;2023-07-31T03:47:59;25.50;57.90
49222;DHT22;35047;37.588;-122.048;2023-07-31T03:50:26;25.60;57.70
49222;DHT22;35047;37.588;-122.048;2023-07-31T03:52:52;25.70;57.20
49222;DHT22;35047;37.588;-122.048;2023-07-31T03:55:19;25.80;57.10
49222;DHT22;35047;37.588;-122.048;2023-07-31T03:57:47;26.00;56.80
49222;DHT22;35047;37.588;-122.048;2023-07-31T04:00:14;26.00;56.50
49222;DHT22;35047;37.588;-122.048;2023-07-31T04:02:40;26.10;56.40
49222;DHT22;35047;37.588;-122.048;2023-07-31T04:05:07;26.20;56.20
49222;DHT22;35047;37.588;-122.048;2023-07-31T04:07:34;26.30;55.80
49222;DHT22;35047;37.588;-122.048;2023-07-31T04:10:00;26.30;55.90
49222;DHT22;35047;37.588;-122.048;2023-07-31T04:12:27;26.10;56.10
49222;DHT22;35047;37.588;-122.048;2023-07-31T04:14:53;26.00;56.30
49222;DHT22;35047;37.588;-122.048;2023-07-31T04:17:20;25.90;56.50
49222;DHT22;35047;37.588;-122.048;2023-07-31T04:19:46;25.90;56.60
49222;DHT22;35047;37.588;-122.048;2023-07-31T04:22:13;25.90;56.60
49222;DHT22;35047;37.588;-122.048;2023-07-31T04:24:39;25.90;56.50
49222;DHT22;35047;37.588;-122.048;2023-07-31T04:27:06;26.00;56.50
49222;DHT22;35047;37.588;-122.048;2023-07-31T04:29:32;26.10;56.50
49222;DHT22;35047;37.588;-122.048;2023-07-31T04:31:59;26.10;56.20
49222;DHT22;35047;37.588;-122.048;2023-07-31T04:34:26;26.00;56.10
49222;DHT22;35047;37.588;-122.048;2023-07-31T04:36:52;25.90;56.20
49222;DHT22;35047;37.588;-122.048;2023-07-31T04:39:19;25.90;56.30
49222;DHT22;35047;37.588;-122.048;2023-07-31T04:41:48;25.90;56.30
49222;DHT22;35047;37.588;-122.048;2023-07-31T04:44:14;26.00;56.30
49222;DHT22;35047;37.588;-122.048;2023-07-31T04:46:41;26.00;56.30
49222;DHT22;35047;37.588;-122.048;2023-07-31T04:49:07;26.10;56.10
49222;DHT22;35047;37.588;-122.048;2023-07-31T04:51:34;26.10;56.00
49222;DHT22;35047;37.588;-122.048;2023-07-31T04:54:00;26.10;56.10
49222;DHT22;35047;37.588;-122.048;2023-07-31T04:56:27;26.10;56.80
49222;DHT22;35047;37.588;-122.048;2023-07-31T04:58:53;26.10;56.00
49222;DHT22;35047;37.588;-122.048;2023-07-31T05:01:20;26.20;55.90
49222;DHT22;35047;37.588;-122.048;2023-07-31T05:03:47;26.10;55.80
49222;DHT22;35047;37.588;-122.048;2023-07-31T05:06:13;26.10;56.20
49222;DHT22;35047;37.588;-122.048;2023-07-31T05:08:41;26.00;56.30
49222;DHT22;35047;37.588;-122.048;2023-07-31T05:11:07;25.80;56.70
49222;DHT22;35047;37.588;-122.048;2023-07-31T05:13:34;25.70;57.20
49222;DHT22;35047;37.588;-122.048;2023-07-31T05:16:00;25.70;57.10
49222;DHT22;35047;37.588;-122.048;2023-07-31T05:18:27;25.70;57.30
49222;DHT22;35047;37.588;-122.048;2023-07-31T05:20:54;25.70;57.30
49222;DHT22;35047;37.588;-122.048;2023-07-31T05:23:20;25.70;57.40
49222;DHT22;35047;37.588;-122.048;2023-07-31T05:25:47;25.70;57.30
49222;DHT22;35047;37.588;-122.048;2023-07-31T05:28:14;25.60;57.40
49222;DHT22;35047;37.588;-122.048;2023-07-31T05:30:41;25.60;57.50
49222;DHT22;35047;37.588;-122.048;2023-07-31T05:33:07;25.60;57.40
49222;DHT22;35047;37.588;-122.048;2023-07-31T05:35:34;25.70;57.30
49222;DHT22;35047;37.588;-122.048;2023-07-31T05:38:00;25.60;57.20
49222;DHT22;35047;37.588;-122.048;2023-07-31T05:40:27;25.60;57.20
49222;DHT22;35047;37.588;-122.048;2023-07-31T05:42:53;25.60;57.50
49222;DHT22;35047;37.588;-122.048;2023-07-31T05:45:20;25.40;57.80
49222;DHT22;35047;37.588;-122.048;2023-07-31T05:47:46;25.40;57.90
49222;DHT22;35047;37.588;-122.048;2023-07-31T05:50:13;25.30;58.00
49222;DHT22;35047;37.588;-122.048;2023-07-31T05:52:40;25.40;58.00
49222;DHT22;35047;37.588;-122.048;2023-07-31T05:55:07;25.40;57.90
49222;DHT22;35047;37.588;-122.048;2023-07-31T05:57:34;25.40;58.00
49222;DHT22;35047;37.588;-122.048;2023-07-31T06:00:00;25.40;58.00
49222;DHT22;35047;37.588;-122.048;2023-07-31T06:02:27;25.40;58.10
49222;DHT22;35047;37.588;-122.048;2023-07-31T06:04:53;25.40;58.30
49222;DHT22;35047;37.588;-122.048;2023-07-31T06:07:20;25.20;58.70
49222;DHT22;35047;37.588;-122.048;2023-07-31T06:09:46;25.10;58.90
49222;DHT22;35047;37.588;-122.048;2023-07-31T06:12:13;25.00;59.20
49222;DHT22;35047;37.588;-122.048;2023-07-31T06:14:40;24.90;59.40
49222;DHT22;35047;37.588;-122.048;2023-07-31T06:17:06;24.90;59.60
49222;DHT22;35047;37.588;-122.048;2023-07-31T06:19:33;24.80;60.40
49222;DHT22;35047;37.588;-122.048;2023-07-31T06:21:59;24.80;59.70
49222;DHT22;35047;37.588;-122.048;2023-07-31T06:24:27;24.70;59.90
49222;DHT22;35047;37.588;-122.048;2023-07-31T06:26:54;24.80;59.90
49222;DHT22;35047;37.588;-122.048;2023-07-31T06:29:21;24.80;59.80
49222;DHT22;35047;37.588;-122.048;2023-07-31T06:31:47;24.80;59.80
49222;DHT22;35047;37.588;-122.048;2023-07-31T06:34:13;24.90;59.70
49222;DHT22;35047;37.588;-122.048;2023-07-31T06:36:40;24.90;58.90
49222;DHT22;35047;37.588;-122.048;2023-07-31T06:39:06;24.80;59.90
49222;DHT22;35047;37.588;-122.048;2023-07-31T06:41:33;24.80;59.80
49222;DHT22;35047;37.588;-122.048;2023-07-31T06:43:59;24.90;59.60
49222;DHT22;35047;37.588;-122.048;2023-07-31T06:46:26;24.90;59.40
49222;DHT22;35047;37.588;-122.048;2023-07-31T06:48:53;24.90;59.30
49222;DHT22;35047;37.588;-122.048;2023-07-31T06:51:19;25.00;59.20
49222;DHT22;35047;37.588;-122.048;2023-07-31T06:53:46;25.00;58.90
49222;DHT22;35047;37.588;-122.048;2023-07-31T06:56:12;25.00;59.20
49222;DHT22;35047;37.588;-122.048;2023-07-31T06:58:39;24.80;59.30
49222;DHT22;35047;37.588;-122.048;2023-07-31T07:01:06;24.80;59.70
49222;DHT22;35047;37.588;-122.048;2023-07-31T07:03:33;24.80;59.90
49222;DHT22;35047;37.588;-122.048;2023-07-31T07:05:59;24.70;60.00
49222;DHT22;35047;37.588;-122.048;2023-07-31T07:08:27;24.80;59.70
49222;DHT22;35047;37.588;-122.048;2023-07-31T07:10:53;24.80;59.60
49222;DHT22;35047;37.588;-122.048;2023-07-31T07:13:21;24.80;59.40
49222;DHT22;35047;37.588;-122.048;2023-07-31T07:15:48;24.80;59.20
49222;DHT22;35047;37.588;-122.048;2023-07-31T07:18:15;24.80;59.30
49222;DHT22;35047;37.588;-122.048;2023-07-31T07:20:47;24.90;58.90
49222;DHT22;35047;37.588;-122.048;2023-07-31T07:23:13;24.90;58.80
49222;DHT22;35047;37.588;-122.048;2023-07-31T07:25:40;24.90;58.80
49222;DHT22;35047;37.588;-122.048;2023-07-31T07:28:06;24.90;58.80
49222;DHT22;35047;37.588;-122.048;2023-07-31T07:30:33;24.90;58.80
49222;DHT22;35047;37.588;-122.048;2023-07-31T07:32:59;24.80;58.80
49222;DHT22;35047;37.588;-122.048;2023-07-31T07:35:26;24.80;58.80
49222;DHT22;35047;37.588;-122.048;2023-07-31T07:37:52;24.80;59.00
49222;DHT22;35047;37.588;-122.048;2023-07-31T07:40:20;24.80;58.90
49222;DHT22;35047;37.588;-122.048;2023-07-31T07:42:46;24.70;59.40
49222;DHT22;35047;37.588;-122.048;2023-07-31T07:45:13;24.70;59.60
49222;DHT22;35047;37.588;-122.048;2023-07-31T07:47:42;24.70;59.60
49222;DHT22;35047;37.588;-122.048;2023-07-31T07:50:09;24.70;59.70
49222;DHT22;35047;37.588;-122.048;2023-07-31T07:52:36;24.60;59.60
49222;DHT22;35047;37.588;-122.048;2023-07-31T07:55:03;24.60;59.80
49222;DHT22;35047;37.588;-122.048;2023-07-31T07:57:30;24.60;59.80
49222;DHT22;35047;37.588;-122.048;2023-07-31T07:59:56;24.60;59.90
49222;DHT22;35047;37.588;-122.048;2023-07-31T08:02:23;24.60;59.90
49222;DHT22;35047;37.588;-122.048;2023-07-31T08:04:50;24.60;60.00
49222;DHT22;35047;37.588;-122.048;2023-07-31T08:07:17;24.60;60.10
49222;DHT22;35047;37.588;-122.048;2023-07-31T08:09:43;24.60;60.00
49222;DHT22;35047;37.588;-122.048;2023-07-31T08:12:10;24.60;60.00
49222;DHT22;35047;37.588;-122.048;2023-07-31T08:14:36;24.50;60.30
49222;DHT22;35047;37.588;-122.048;2023-07-31T08:17:03;24.50;60.20
49222;DHT22;35047;37.588;-122.048;2023-07-31T08:19:29;24.60;60.10
49222;DHT22;35047;37.588;-122.048;2023-07-31T08:21:56;24.50;59.90
49222;DHT22;35047;37.588;-122.048;2023-07-31T08:24:23;24.50;60.10
49222;DHT22;35047;37.588;-122.048;2023-07-31T08:26:49;24.50;60.30
49222;DHT22;35047;37.588;-122.048;2023-07-31T08:29:16;24.50;60.30
49222;DHT22;35047;37.588;-122.048;2023-07-31T08:31:42;24.50;60.30
49222;DHT22;35047;37.588;-122.048;2023-07-31T08:34:09;24.50;60.30
49222;DHT22;35047;37.588;-122.048;2023-07-31T08:36:35;24.50;60.40
49222;DHT22;35047;37.588;-122.048;2023-07-31T08:39:02;24.50;60.40
49222;DHT22;35047;37.588;-122.048;2023-07-31T08:41:29;24.50;60.40
49222;DHT22;35047;37.588;-122.048;2023-07-31T08:43:57;24.50;60.20
49222;DHT22;35047;37.588;-122.048;2023-07-31T08:46:24;24.50;60.30
49222;DHT22;35047;37.588;-122.048;2023-07-31T08:48:50;24.40;60.30
49222;DHT22;35047;37.588;-122.048;2023-07-31T08:51:18;24.40;60.50
49222;DHT22;35047;37.588;-122.048;2023-07-31T08:53:44;24.40;60.40
49222;DHT22;35047;37.588;-122.048;2023-07-31T08:56:12;24.40;60.50
49222;DHT22;35047;37.588;-122.048;2023-07-31T08:58:41;24.40;60.70
49222;DHT22;35047;37.588;-122.048;2023-07-31T09:01:08;24.40;61.00
49222;DHT22;35047;37.588;-122.048;2023-07-31T09:03:35;24.30;61.20
49222;DHT22;35047;37.588;-122.048;2023-07-31T09:06:03;24.30;61.30
49222;DHT22;35047;37.588;-122.048;2023-07-31T09:08:32;24.30;61.40
49222;DHT22;35047;37.588;-122.048;2023-07-31T09:11:02;24.30;61.30
49222;DHT22;35047;37.588;-122.048;2023-07-31T09:13:32;24.20;61.40
49222;DHT22;35047;37.588;-122.048;2023-07-31T09:15:59;24.20;61.50
49222;DHT22;35047;37.588;-122.048;2023-07-31T09:18:25;24.20;61.70
49222;DHT22;35047;37.588;-122.048;2023-07-31T09:23:44;24.10;61.70
49222;DHT22;35047;37.588;-122.048;2023-07-31T09:26:11;24.10;61.90
49222;DHT22;35047;37.588;-122.048;2023-07-31T09:28:54;24.10;61.70
49222;DHT22;35047;37.588;-122.048;2023-07-31T09:31:40;24.10;61.40
49222;DHT22;35047;37.588;-122.048;2023-07-31T09:34:07;24.10;61.20
49222;DHT22;35047;37.588;-122.048;2023-07-31T09:36:40;24.10;61.10
49222;DHT22;35047;37.588;-122.048;2023-07-31T09:39:12;24.10;61.00
49222;DHT22;35047;37.588;-122.048;2023-07-31T09:41:43;24.10;60.80
49222;DHT22;35047;37.588;-122.048;2023-07-31T09:44:10;24.10;60.80
49222;DHT22;35047;37.588;-122.048;2023-07-31T09:46:37;24.10;60.80
49222;DHT22;35047;37.588;-122.048;2023-07-31T09:49:10;24.10;60.80
49222;DHT22;35047;37.588;-122.048;2023-07-31T09:51:41;24.10;60.60
49222;DHT22;35047;37.588;-122.048;2023-07-31T09:54:15;24.10;60.30
49222;DHT22;35047;37.588;-122.048;2023-07-31T09:56:47;24.10;60.50
49222;DHT22;35047;37.588;-122.048;2023-07-31T09:59:16;24.00;60.50
49222;DHT22;35047;37.588;-122.048;2023-07-31T10:01:45;24.00;60.40
49222;DHT22;35047;37.588;-122.048;2023-07-31T10:04:13;24.00;60.40
49222;DHT22;35047;37.588;-122.048;2023-07-31T10:06:42;24.00;60.70
49222;DHT22;35047;37.588;-122.048;2023-07-31T10:09:12;23.90;60.90
49222;DHT22;35047;37.588;-122.048;2023-07-31T10:11:47;23.90;60.60
49222;DHT22;35047;37.588;-122.048;2023-07-31T10:14:20;23.90;60.50
49222;DHT22;35047;37.588;-122.048;2023-07-31T10:16:48;23.90;60.70
49222;DHT22;35047;37.588;-122.048;2023-07-31T10:19:14;23.90;60.70
49222;DHT22;35047;37.588;-122.048;2023-07-31T10:21:42;23.80;60.90
49222;DHT22;35047;37.588;-122.048;2023-07-31T10:24:09;23.80;61.10
49222;DHT22;35047;37.588;-122.048;2023-07-31T10:26:37;23.80;61.00
49222;DHT22;35047;37.588;-122.048;2023-07-31T10:29:07;23.70;61.00
49222;DHT22;35047;37.588;-122.048;2023-07-31T10:31:34;23.70;60.90
49222;DHT22;35047;37.588;-122.048;2023-07-31T10:34:01;23.70;60.90
49222;DHT22;35047;37.588;-122.048;2023-07-31T10:36:29;23.70;60.80
49222;DHT22;35047;37.588;-122.048;2023-07-31T10:38:56;23.70;61.00
49222;DHT22;35047;37.588;-122.048;2023-07-31T10:41:30;23.70;61.30
49222;DHT22;35047;37.588;-122.048;2023-07-31T10:44:00;23.70;61.10
49222;DHT22;35047;37.588;-122.048;2023-07-31T10:46:30;23.70;60.90
49222;DHT22;35047;37.588;-122.048;2023-07-31T10:49:01;23.70;61.10
49222;DHT22;35047;37.588;-122.048;2023-07-31T10:51:35;23.60;61.00
49222;DHT22;35047;37.588;-122.048;2023-07-31T10:54:11;23.60;60.90
49222;DHT22;35047;37.588;-122.048;2023-07-31T10:56:38;23.60;61.10
49222;DHT22;35047;37.588;-122.048;2023-07-31T10:59:05;23.60;61.20
49222;DHT22;35047;37.588;-122.048;2023-07-31T11:01:56;23.60;61.00
49222;DHT22;35047;37.588;-122.048;2023-07-31T11:04:27;23.60;60.70
49222;DHT22;35047;37.588;-122.048;2023-07-31T11:06:58;23.60;60.60
49222;DHT22;35047;37.588;-122.048;2023-07-31T11:09:31;23.50;60.70
49222;DHT22;35047;37.588;-122.048;2023-07-31T11:11:59;23.50;60.70
49222;DHT22;35047;37.588;-122.048;2023-07-31T11:14:26;23.50;60.70
49222;DHT22;35047;37.588;-122.048;2023-07-31T11:16:53;23.50;61.10
49222;DHT22;35047;37.588;-122.048;2023-07-31T11:19:23;23.40;61.10
49222;DHT22;35047;37.588;-122.048;2023-07-31T11:21:52;23.40;60.80
49222;DHT22;35047;37.588;-122.048;2023-07-31T11:24:22;23.40;60.90
49222;DHT22;35047;37.588;-122.048;2023-07-31T11:26:52;23.40;61.00
49222;DHT22;35047;37.588;-122.048;2023-07-31T11:29:19;23.40;61.00
49222;DHT22;35047;37.588;-122.048;2023-07-31T11:31:47;23.40;61.20
49222;DHT22;35047;37.588;-122.048;2023-07-31T11:34:15;23.40;61.40
49222;DHT22;35047;37.588;-122.048;2023-07-31T11:36:56;23.40;61.60
49222;DHT22;35047;37.588;-122.048;2023-07-31T11:39:22;23.40;61.50
49222;DHT22;35047;37.588;-122.048;2023-07-31T11:41:49;23.30;62.30
49222;DHT22;35047;37.588;-122.048;2023-07-31T11:44:15;23.30;61.70
49222;DHT22;35047;37.588;-122.048;2023-07-31T11:46:42;23.30;61.80
49222;DHT22;35047;37.588;-122.048;2023-07-31T11:49:09;23.30;61.50
49222;DHT22;35047;37.588;-122.048;2023-07-31T11:51:35;23.30;61.30
49222;DHT22;35047;37.588;-122.048;2023-07-31T11:54:02;23.30;61.30
49222;DHT22;35047;37.588;-122.048;2023-07-31T11:56:29;23.20;61.30
49222;DHT22;35047;37.588;-122.048;2023-07-31T11:58:59;23.20;61.30
49222;DHT22;35047;37.588;-122.048;2023-07-31T12:01:28;23.20;61.30
49222;DHT22;35047;37.588;-122.048;2023-07-31T12:03:55;23.20;61.40
49222;DHT22;35047;37.588;-122.048;2023-07-31T12:06:31;23.20;61.40
49222;DHT22;35047;37.588;-122.048;2023-07-31T12:09:05;23.10;61.30
49222;DHT22;35047;37.588;-122.048;2023-07-31T12:11:31;23.10;61.40
49222;DHT22;35047;37.588;-122.048;2023-07-31T12:14:08;23.10;61.60
49222;DHT22;35047;37.588;-122.048;2023-07-31T12:16:45;23.10;61.60
49222;DHT22;35047;37.588;-122.048;2023-07-31T12:19:11;23.10;61.60
49222;DHT22;35047;37.588;-122.048;2023-07-31T12:21:38;23.10;61.80
49222;DHT22;35047;37.588;-122.048;2023-07-31T12:24:05;23.10;61.70
49222;DHT22;35047;37.588;-122.048;2023-07-31T12:26:34;23.10;61.70
49222;DHT22;35047;37.588;-122.048;2023-07-31T12:29:01;23.00;61.70
49222;DHT22;35047;37.588;-122.048;2023-07-31T12:31:28;23.00;61.60
49222;DHT22;35047;37.588;-122.048;2023-07-31T12:33:56;23.00;61.50
49222;DHT22;35047;37.588;-122.048;2023-07-31T12:36:23;23.00;61.50
49222;DHT22;35047;37.588;-122.048;2023-07-31T12:38:51;23.00;61.60
49222;DHT22;35047;37.588;-122.048;2023-07-31T12:41:18;22.90;61.50
49222;DHT22;35047;37.588;-122.048;2023-07-31T12:43:45;22.90;61.40
49222;DHT22;35047;37.588;-122.048;2023-07-31T12:46:12;22.90;61.40
49222;DHT22;35047;37.588;-122.048;2023-07-31T12:48:39;22.90;61.40
49222;DHT22;35047;37.588;-122.048;2023-07-31T12:51:07;22.90;61.70
49222;DHT22;35047;37.588;-122.048;2023-07-31T12:53:33;22.80;61.60
49222;DHT22;35047;37.588;-122.048;2023-07-31T12:56:00;22.80;61.90
49222;DHT22;35047;37.588;-122.048;2023-07-31T12:58:27;22.80;61.90
49222;DHT22;35047;37.588;-122.048;2023-07-31T13:00:53;22.80;61.80
49222;DHT22;35047;37.588;-122.048;2023-07-31T13:03:20;22.80;61.50
49222;DHT22;35047;37.588;-122.048;2023-07-31T13:05:46;22.80;61.60
49222;DHT22;35047;37.588;-122.048;2023-07-31T13:08:13;22.80;61.60
49222;DHT22;35047;37.588;-122.048;2023-07-31T13:10:41;22.70;61.70
49222;DHT22;35047;37.588;-122.048;2023-07-31T13:13:09;22.70;61.70
49222;DHT22;35047;37.588;-122.048;2023-07-31T13:15:36;22.70;61.70
49222;DHT22;35047;37.588;-122.048;2023-07-31T13:18:03;22.70;61.60
49222;DHT22;35047;37.588;-122.048;2023-07-31T13:20:30;22.70;61.70
49222;DHT22;35047;37.588;-122.048;2023-07-31T13:22:56;22.60;61.80
49222;DHT22;35047;37.588;-122.048;2023-07-31T13:25:23;22.60;61.90
49222;DHT22;35047;37.588;-122.048;2023-07-31T13:27:50;22.70;62.20
49222;DHT22;35047;37.588;-122.048;2023-07-31T13:30:16;22.60;62.30
49222;DHT22;35047;37.588;-122.048;2023-07-31T13:32:43;22.70;62.10
49222;DHT22;35047;37.588;-122.048;2023-07-31T13:35:09;22.70;62.10
49222;DHT22;35047;37.588;-122.048;2023-07-31T13:37:39;22.60;62.10
49222;DHT22;35047;37.588;-122.048;2023-07-31T13:40:05;22.60;62.30
49222;DHT22;35047;37.588;-122.048;2023-07-31T13:42:32;22.60;62.20
49222;DHT22;35047;37.588;-122.048;2023-07-31T13:44:59;22.60;62.10
49222;DHT22;35047;37.588;-122.048;2023-07-31T13:47:26;22.60;62.30
49222;DHT22;35047;37.588;-122.048;2023-07-31T13:49:52;22.60;62.20
49222;DHT22;35047;37.588;-122.048;2023-07-31T13:52:19;22.60;62.60
49222;DHT22;35047;37.588;-122.048;2023-07-31T13:54:45;22.70;62.80
49222;DHT22;35047;37.588;-122.048;2023-07-31T13:57:13;22.70;62.80
49222;DHT22;35047;37.588;-122.048;2023-07-31T13:59:40;22.70;62.80
49222;DHT22;35047;37.588;-122.048;2023-07-31T14:02:06;22.80;63.00
49222;DHT22;35047;37.588;-122.048;2023-07-31T14:04:33;22.80;63.30
49222;DHT22;35047;37.588;-122.048;2023-07-31T14:06:59;22.80;63.40
49222;DHT22;35047;37.588;-122.048;2023-07-31T14:09:26;22.90;63.60
49222;DHT22;35047;37.588;-122.048;2023-07-31T14:11:54;22.90;63.60
49222;DHT22;35047;37.588;-122.048;2023-07-31T14:14:21;22.90;63.70
49222;DHT22;35047;37.588;-122.048;2023-07-31T14:16:48;23.00;64.00
49222;DHT22;35047;37.588;-122.048;2023-07-31T14:19:14;23.10;64.50
49222;DHT22;35047;37.588;-122.048;2023-07-31T14:21:41;23.10;65.10
49222;DHT22;35047;37.588;-122.048;2023-07-31T14:24:07;23.20;65.10
49222;DHT22;35047;37.588;-122.048;2023-07-31T14:26:34;23.30;65.20
49222;DHT22;35047;37.588;-122.048;2023-07-31T14:29:00;23.40;65.30
49222;DHT22;35047;37.588;-122.048;2023-07-31T14:31:27;23.40;65.30
49222;DHT22;35047;37.588;-122.048;2023-07-31T14:33:54;23.50;65.30
49222;DHT22;35047;37.588;-122.048;2023-07-31T14:36:20;23.60;65.40
49222;DHT22;35047;37.588;-122.048;2023-07-31T14:38:47;23.70;65.10
49222;DHT22;35047;37.588;-122.048;2023-07-31T14:41:13;23.90;64.90
49222;DHT22;35047;37.588;-122.048;2023-07-31T14:43:40;24.10;64.30
49222;DHT22;35047;37.588;-122.048;2023-07-31T14:46:06;24.10;64.10
49222;DHT22;35047;37.588;-122.048;2023-07-31T14:48:35;24.30;64.10
49222;DHT22;35047;37.588;-122.048;2023-07-31T14:51:02;24.30;63.40
49222;DHT22;35047;37.588;-122.048;2023-07-31T14:53:28;24.50;63.50
49222;DHT22;35047;37.588;-122.048;2023-07-31T14:55:55;24.50;63.20
49222;DHT22;35047;37.588;-122.048;2023-07-31T14:58:21;24.60;63.40
49222;DHT22;35047;37.588;-122.048;2023-07-31T15:00:48;24.70;63.00
49222;DHT22;35047;37.588;-122.048;2023-07-31T15:03:15;24.70;63.00
49222;DHT22;35047;37.588;-122.048;2023-07-31T15:05:41;24.60;63.10